sensor_id;sensor_type;location;lat;lon;timestamp;temperature;humidity
37996;DHT22;23808;50.634;6.948;2022-09-13T06:58:35;19.50;99.90
37996;DHT22;23808;50.634;6.948;2022-09-13T07:02:36;19.80;99.90
37996;DHT22;23808;50.634;6.948;2022-09-13T07:06:38;20.60;99.90
37996;DHT22;23808;50.634;6.948;2022-09-13T07:10:39;21.20;99.30
37996;DHT22;23808;50.634;6.948;2022-09-13T07:14:39;21.50;98.70
37996;DHT22;23808;50.634;6.948;2022-09-13T07:18:40;21.70;97.50
37996;DHT22;23808;50.634;6.948;2022-09-13T07:22:40;21.80;97.00
37996;DHT22;23808;50.634;6.948;2022-09-13T07:26:41;21.90;96.80
37996;DHT22;23808;50.634;6.948;2022-09-13T07:30:41;22.00;96.60
37996;DHT22;23808;50.634;6.948;2022-09-13T07:34:42;22.10;96.50
37996;DHT22;23808;50.634;6.948;2022-09-13T07:38:43;22.20;96.60
37996;DHT22;23808;50.634;6.948;2022-09-13T07:42:47;22.30;96.20
37996;DHT22;23808;50.634;6.948;2022-09-13T07:46:47;22.40;96.30
37996;DHT22;23808;50.634;6.948;2022-09-13T07:50:58;22.60;96.20
37996;DHT22;23808;50.634;6.948;2022-09-13T07:54:59;22.90;96.00
37996;DHT22;23808;50.634;6.948;2022-09-13T07:59:00;23.00;95.70
37996;DHT22;23808;50.634;6.948;2022-09-13T08:03:01;23.20;95.70
37996;DHT22;23808;50.634;6.948;2022-09-13T08:07:01;23.30;95.40
37996;DHT22;23808;50.634;6.948;2022-09-13T08:11:03;23.50;94.90
37996;DHT22;23808;50.634;6.948;2022-09-13T08:15:04;23.70;94.50
37996;DHT22;23808;50.634;6.948;2022-09-13T08:19:06;24.00;94.40
37996;DHT22;23808;50.634;6.948;2022-09-13T08:23:08;24.30;93.90
37996;DHT22;23808;50.634;6.948;2022-09-13T08:27:08;24.50;93.40
37996;DHT22;23808;50.634;6.948;2022-09-13T08:31:10;24.80;93.30
37996;DHT22;23808;50.634;6.948;2022-09-13T08:35:12;25.00;93.10
37996;DHT22;23808;50.634;6.948;2022-09-13T08:39:16;25.20;93.20
37996;DHT22;23808;50.634;6.948;2022-09-13T08:43:23;25.20;92.90
37996;DHT22;23808;50.634;6.948;2022-09-13T08:47:28;25.30;92.10
37996;DHT22;23808;50.634;6.948;2022-09-13T08:51:31;25.50;92.20
37996;DHT22;23808;50.634;6.948;2022-09-13T08:55:38;25.70;91.90
37996;DHT22;23808;50.634;6.948;2022-09-13T09:03:48;26.00;91.20
37996;DHT22;23808;50.634;6.948;2022-09-13T09:08:00;26.10;90.70
37996;DHT22;23808;50.634;6.948;2022-09-13T09:12:23;26.20;90.30
37996;DHT22;23808;50.634;6.948;2022-09-13T09:20:47;26.30;88.80
37996;DHT22;23808;50.634;6.948;2022-09-13T09:24:49;26.30;88.30
37996;DHT22;23808;50.634;6.948;2022-09-13T09:28:58;26.60;88.70
37996;DHT22;23808;50.634;6.948;2022-09-13T09:33:08;27.10;87.60
37996;DHT22;23808;50.634;6.948;2022-09-13T09:37:26;27.70;86.40
37996;DHT22;23808;50.634;6.948;2022-09-13T09:41:28;28.60;84.40
37996;DHT22;23808;50.634;6.948;2022-09-13T09:45:30;29.10;83.10
37996;DHT22;23808;50.634;6.948;2022-09-13T09:53:52;29.50;80.80
37996;DHT22;23808;50.634;6.948;2022-09-13T09:57:58;29.50;79.30
37996;DHT22;23808;50.634;6.948;2022-09-13T10:01:59;29.40;78.50
37996;DHT22;23808;50.634;6.948;2022-09-13T10:06:07;29.40;78.70
37996;DHT22;23808;50.634;6.948;2022-09-13T10:10:25;29.50;78.20
37996;DHT22;23808;50.634;6.948;2022-09-13T10:14:38;29.50;77.50
37996;DHT22;23808;50.634;6.948;2022-09-13T10:18:39;29.50;75.80
37996;DHT22;23808;50.634;6.948;2022-09-13T10:22:39;29.40;76.30
37996;DHT22;23808;50.634;6.948;2022-09-13T10:26:42;29.40;76.30
37996;DHT22;23808;50.634;6.948;2022-09-13T10:30:55;29.60;76.00
37996;DHT22;23808;50.634;6.948;2022-09-13T10:35:05;29.80;75.70
37996;DHT22;23808;50.634;6.948;2022-09-13T10:39:07;30.00;75.00
37996;DHT22;23808;50.634;6.948;2022-09-13T10:43:13;30.10;74.20
37996;DHT22;23808;50.634;6.948;2022-09-13T10:47:37;30.10;74.60
37996;DHT22;23808;50.634;6.948;2022-09-13T10:51:38;30.00;73.90
37996;DHT22;23808;50.634;6.948;2022-09-13T10:55:39;29.90;74.00
37996;DHT22;23808;50.634;6.948;2022-09-13T10:59:41;30.10;74.10
37996;DHT22;23808;50.634;6.948;2022-09-13T11:12:01;30.30;72.20
37996;DHT22;23808;50.634;6.948;2022-09-13T11:16:19;30.40;72.40
37996;DHT22;23808;50.634;6.948;2022-09-13T11:33:10;31.10;71.60
37996;DHT22;23808;50.634;6.948;2022-09-13T11:45:28;31.70;69.30
37996;DHT22;23808;50.634;6.948;2022-09-13T11:53:47;31.40;69.60
37996;DHT22;23808;50.634;6.948;2022-09-13T11:58:11;31.40;69.30
37996;DHT22;23808;50.634;6.948;2022-09-13T12:02:17;31.30;69.20
37996;DHT22;23808;50.634;6.948;2022-09-13T12:06:24;31.10;69.20
37996;DHT22;23808;50.634;6.948;2022-09-13T12:15:04;30.80;69.00
37996;DHT22;23808;50.634;6.948;2022-09-13T12:23:15;30.70;69.60
37996;DHT22;23808;50.634;6.948;2022-09-13T12:31:36;30.80;69.10
37996;DHT22;23808;50.634;6.948;2022-09-13T12:35:38;30.80;69.10
37996;DHT22;23808;50.634;6.948;2022-09-13T12:48:30;30.60;68.70
37996;DHT22;23808;50.634;6.948;2022-09-13T13:01:03;30.30;69.60
37996;DHT22;23808;50.634;6.948;2022-09-13T13:05:17;30.20;69.70
37996;DHT22;23808;50.634;6.948;2022-09-13T13:09:21;29.90;69.50
37996;DHT22;23808;50.634;6.948;2022-09-13T13:13:27;29.70;69.90
37996;DHT22;23808;50.634;6.948;2022-09-13T13:21:35;29.50;70.60
37996;DHT22;23808;50.634;6.948;2022-09-13T13:25:36;29.60;71.00
37996;DHT22;23808;50.634;6.948;2022-09-13T13:29:38;29.80;70.30
37996;DHT22;23808;50.634;6.948;2022-09-13T13:33:46;29.90;70.20
37996;DHT22;23808;50.634;6.948;2022-09-13T13:37:47;30.10;70.30
37996;DHT22;23808;50.634;6.948;2022-09-13T14:44:06;26.30;79.50
37996;DHT22;23808;50.634;6.948;2022-09-13T14:48:17;26.40;81.90
37996;DHT22;23808;50.634;6.948;2022-09-13T14:52:20;26.70;81.60
37996;DHT22;23808;50.634;6.948;2022-09-13T14:56:31;26.90;81.40
37996;DHT22;23808;50.634;6.948;2022-09-13T15:00:35;26.80;81.80
37996;DHT22;23808;50.634;6.948;2022-09-13T15:04:38;26.70;82.40
37996;DHT22;23808;50.634;6.948;2022-09-13T15:08:42;26.50;83.30
37996;DHT22;23808;50.634;6.948;2022-09-13T15:13:07;26.50;84.50
37996;DHT22;23808;50.634;6.948;2022-09-13T15:17:09;26.40;86.00
37996;DHT22;23808;50.634;6.948;2022-09-13T15:21:16;26.30;88.20
37996;DHT22;23808;50.634;6.948;2022-09-13T15:25:24;26.20;90.00
37996;DHT22;23808;50.634;6.948;2022-09-13T15:29:25;26.10;90.50
37996;DHT22;23808;50.634;6.948;2022-09-13T15:37:30;25.80;92.60
37996;DHT22;23808;50.634;6.948;2022-09-13T15:41:32;25.70;93.60
37996;DHT22;23808;50.634;6.948;2022-09-13T15:45:33;25.50;94.60
37996;DHT22;23808;50.634;6.948;2022-09-13T15:49:33;25.40;95.60
37996;DHT22;23808;50.634;6.948;2022-09-13T15:53:35;25.30;96.40
37996;DHT22;23808;50.634;6.948;2022-09-13T15:57:35;25.20;97.00
37996;DHT22;23808;50.634;6.948;2022-09-13T16:01:36;25.10;97.50
37996;DHT22;23808;50.634;6.948;2022-09-13T16:05:36;25.00;98.30
37996;DHT22;23808;50.634;6.948;2022-09-13T16:09:37;24.90;99.10
37996;DHT22;23808;50.634;6.948;2022-09-13T16:13:38;24.80;99.90
37996;DHT22;23808;50.634;6.948;2022-09-13T16:17:39;24.70;99.90
37996;DHT22;23808;50.634;6.948;2022-09-13T16:21:39;24.60;99.90
37996;DHT22;23808;50.634;6.948;2022-09-13T16:25:40;24.50;99.90
37996;DHT22;23808;50.634;6.948;2022-09-13T16:29:41;24.30;99.90
37996;DHT22;23808;50.634;6.948;2022-09-13T16:33:41;24.20;99.90
37996;DHT22;23808;50.634;6.948;2022-09-13T16:37:42;24.00;99.90
37996;DHT22;23808;50.634;6.948;2022-09-13T16:41:43;23.90;99.90
37996;DHT22;23808;50.634;6.948;2022-09-13T16:45:44;23.60;99.90
37996;DHT22;23808;50.634;6.948;2022-09-13T16:49:44;23.50;99.90
37996;DHT22;23808;50.634;6.948;2022-09-13T16:53:45;23.20;99.90
37996;DHT22;23808;50.634;6.948;2022-09-13T16:57:46;23.00;99.90
37996;DHT22;23808;50.634;6.948;2022-09-13T17:01:48;22.90;99.90
37996;DHT22;23808;50.634;6.948;2022-09-13T17:05:56;22.80;99.90
37996;DHT22;23808;50.634;6.948;2022-09-13T17:09:57;22.70;99.90
37996;DHT22;23808;50.634;6.948;2022-09-13T17:13:58;22.70;99.90
37996;DHT22;23808;50.634;6.948;2022-09-13T17:17:59;22.60;99.90
37996;DHT22;23808;50.634;6.948;2022-09-13T17:22:01;22.60;99.90
37996;DHT22;23808;50.634;6.948;2022-09-13T17:26:02;22.50;99.90
37996;DHT22;23808;50.634;6.948;2022-09-13T17:30:03;22.50;99.90
37996;DHT22;23808;50.634;6.948;2022-09-13T17:34:04;22.40;99.90
37996;DHT22;23808;50.634;6.948;2022-09-13T17:38:04;22.40;99.90
37996;DHT22;23808;50.634;6.948;2022-09-13T17:42:05;22.30;99.90
37996;DHT22;23808;50.634;6.948;2022-09-13T17:46:06;22.30;99.90
37996;DHT22;23808;50.634;6.948;2022-09-13T17:50:07;22.20;99.90
37996;DHT22;23808;50.634;6.948;2022-09-13T17:54:09;22.10;99.90
37996;DHT22;23808;50.634;6.948;2022-09-13T17:58:09;22.00;99.90
37996;DHT22;23808;50.634;6.948;2022-09-13T18:02:10;22.00;99.90
37996;DHT22;23808;50.634;6.948;2022-09-13T18:06:10;21.90;99.90
37996;DHT22;23808;50.634;6.948;2022-09-13T18:10:11;21.90;99.90
37996;DHT22;23808;50.634;6.948;2022-09-13T18:14:12;21.80;99.90
37996;DHT22;23808;50.634;6.948;2022-09-13T18:18:13;21.80;99.90
37996;DHT22;23808;50.634;6.948;2022-09-13T18:22:13;21.70;99.90
37996;DHT22;23808;50.634;6.948;2022-09-13T18:26:15;21.70;99.90
37996;DHT22;23808;50.634;6.948;2022-09-13T18:30:16;21.60;99.90
37996;DHT22;23808;50.634;6.948;2022-09-13T18:34:16;21.50;99.90
37996;DHT22;23808;50.634;6.948;2022-09-13T18:38:17;21.40;99.90
37996;DHT22;23808;50.634;6.948;2022-09-13T18:42:17;21.30;99.90
37996;DHT22;23808;50.634;6.948;2022-09-13T18:46:19;21.20;99.90
37996;DHT22;23808;50.634;6.948;2022-09-13T18:50:19;21.10;99.90
37996;DHT22;23808;50.634;6.948;2022-09-13T18:54:20;21.00;99.90
37996;DHT22;23808;50.634;6.948;2022-09-13T18:58:21;20.90;99.90
37996;DHT22;23808;50.634;6.948;2022-09-13T19:02:22;20.80;99.90
37996;DHT22;23808;50.634;6.948;2022-09-13T19:06:23;20.80;99.90
37996;DHT22;23808;50.634;6.948;2022-09-13T19:10:24;20.70;99.90
37996;DHT22;23808;50.634;6.948;2022-09-13T19:14:25;20.60;99.90
37996;DHT22;23808;50.634;6.948;2022-09-13T19:18:26;20.60;99.90
37996;DHT22;23808;50.634;6.948;2022-09-13T19:22:27;20.50;99.90
37996;DHT22;23808;50.634;6.948;2022-09-13T19:26:29;20.40;99.90
37996;DHT22;23808;50.634;6.948;2022-09-13T19:30:32;20.40;99.90
37996;DHT22;23808;50.634;6.948;2022-09-13T19:34:33;20.40;99.90
37996;DHT22;23808;50.634;6.948;2022-09-13T19:38:33;20.30;99.90
37996;DHT22;23808;50.634;6.948;2022-09-13T19:42:34;20.30;99.90
37996;DHT22;23808;50.634;6.948;2022-09-13T19:46:36;20.30;99.90
37996;DHT22;23808;50.634;6.948;2022-09-13T19:50:37;20.40;99.90
37996;DHT22;23808;50.634;6.948;2022-09-13T19:54:37;20.40;99.90
37996;DHT22;23808;50.634;6.948;2022-09-13T19:58:38;20.40;99.90
37996;DHT22;23808;50.634;6.948;2022-09-13T20:02:38;20.40;99.90
37996;DHT22;23808;50.634;6.948;2022-09-13T20:06:40;20.40;99.90
37996;DHT22;23808;50.634;6.948;2022-09-13T20:10:41;20.40;99.90
37996;DHT22;23808;50.634;6.948;2022-09-13T20:14:41;20.30;99.90
37996;DHT22;23808;50.634;6.948;2022-09-13T20:18:42;20.30;99.90
37996;DHT22;23808;50.634;6.948;2022-09-13T20:22:42;20.30;99.90
37996;DHT22;23808;50.634;6.948;2022-09-13T20:26:43;20.30;99.90
37996;DHT22;23808;50.634;6.948;2022-09-13T20:30:50;20.20;99.90
37996;DHT22;23808;50.634;6.948;2022-09-13T20:34:51;20.20;99.90
37996;DHT22;23808;50.634;6.948;2022-09-13T20:38:52;20.20;99.90
37996;DHT22;23808;50.634;6.948;2022-09-13T20:42:53;20.20;99.90
37996;DHT22;23808;50.634;6.948;2022-09-13T20:46:54;20.20;99.90
37996;DHT22;23808;50.634;6.948;2022-09-13T20:50:58;20.20;99.90
37996;DHT22;23808;50.634;6.948;2022-09-13T20:54:59;20.20;99.90
37996;DHT22;23808;50.634;6.948;2022-09-13T20:58:59;20.20;99.90
37996;DHT22;23808;50.634;6.948;2022-09-13T21:03:00;20.20;99.90
37996;DHT22;23808;50.634;6.948;2022-09-13T21:07:00;20.30;99.90
37996;DHT22;23808;50.634;6.948;2022-09-13T21:11:21;20.20;99.90
37996;DHT22;23808;50.634;6.948;2022-09-13T21:15:22;20.20;99.90
37996;DHT22;23808;50.634;6.948;2022-09-13T21:19:22;20.10;99.90
37996;DHT22;23808;50.634;6.948;2022-09-13T21:23:24;20.20;99.90
37996;DHT22;23808;50.634;6.948;2022-09-13T21:27:24;20.20;99.90
37996;DHT22;23808;50.634;6.948;2022-09-13T21:31:26;20.20;99.90
37996;DHT22;23808;50.634;6.948;2022-09-13T21:35:27;20.20;99.90
37996;DHT22;23808;50.634;6.948;2022-09-13T21:39:30;20.20;99.90
37996;DHT22;23808;50.634;6.948;2022-09-13T21:43:31;20.20;99.90
37996;DHT22;23808;50.634;6.948;2022-09-13T21:47:32;20.20;99.90
37996;DHT22;23808;50.634;6.948;2022-09-13T21:51:33;20.20;99.90
37996;DHT22;23808;50.634;6.948;2022-09-13T21:55:34;20.20;99.90
37996;DHT22;23808;50.634;6.948;2022-09-13T21:59:35;20.30;99.90
37996;DHT22;23808;50.634;6.948;2022-09-13T22:03:36;20.30;99.90
37996;DHT22;23808;50.634;6.948;2022-09-13T22:07:37;20.30;99.90
37996;DHT22;23808;50.634;6.948;2022-09-13T22:11:39;20.30;99.90
37996;DHT22;23808;50.634;6.948;2022-09-13T22:15:40;20.20;99.90
37996;DHT22;23808;50.634;6.948;2022-09-13T22:19:40;20.20;99.90
37996;DHT22;23808;50.634;6.948;2022-09-13T22:23:41;20.20;99.90
37996;DHT22;23808;50.634;6.948;2022-09-13T22:27:42;20.10;99.90
37996;DHT22;23808;50.634;6.948;2022-09-13T22:31:44;20.10;99.90
37996;DHT22;23808;50.634;6.948;2022-09-13T22:35:44;20.10;99.90
37996;DHT22;23808;50.634;6.948;2022-09-13T22:39:45;20.10;99.90
37996;DHT22;23808;50.634;6.948;2022-09-13T22:43:46;20.10;99.90
37996;DHT22;23808;50.634;6.948;2022-09-13T22:47:46;20.00;99.90
37996;DHT22;23808;50.634;6.948;2022-09-13T22:51:47;20.10;99.90
37996;DHT22;23808;50.634;6.948;2022-09-13T22:55:48;20.10;99.90
37996;DHT22;23808;50.634;6.948;2022-09-13T22:59:48;20.00;99.90
37996;DHT22;23808;50.634;6.948;2022-09-13T23:17:43;20.10;99.90
37996;DHT22;23808;50.634;6.948;2022-09-13T23:21:43;20.10;99.90
37996;DHT22;23808;50.634;6.948;2022-09-13T23:25:44;20.00;99.90
37996;DHT22;23808;50.634;6.948;2022-09-13T23:29:44;20.10;99.90
37996;DHT22;23808;50.634;6.948;2022-09-13T23:33:47;20.10;99.90
37996;DHT22;23808;50.634;6.948;2022-09-13T23:37:48;20.10;99.90
37996;DHT22;23808;50.634;6.948;2022-09-13T23:41:49;20.00;99.90
37996;DHT22;23808;50.634;6.948;2022-09-13T23:45:50;20.10;99.90
37996;DHT22;23808;50.634;6.948;2022-09-13T23:59:21;20.10;99.90
